Butts AAF (Fort Carson) Air Field Fort Carson US
ICAO: KFCS
IATA: FCS
Category: Medium
Scheduled Services: No

Elevation: 5838 ft
TransAlt. 18000 ft.

Airport Communications:
SPRINGS APP/DEP:124
FLT FLW:38.35
ATIS:108.8
PMSV METRO:44.1
PTD/OPS:141.15
TWR:125.5

KFCS Zoom In..

Runways:

(A) RW 04 length 2307 ft width 75 ft
---- / hdg 39

(B) RW 13 length 4572 ft width 75 ft
---- / hdg 126

(C) RW 22 length 2307 ft width 75 ft
---- / hdg 219

(D) RW 31 length 4572 ft width 75 ft
---- / hdg 306

Location; KFCS
Day. 22 / Time. 01.58 Zulu
* Altimeter: 30.02
* Temperature: 19° c. 66.2°f.
* Wind from: 320° Speed 04 kn.
Dewpoint: 02° c.
Visibility: 10 Statute Miles.
Clouds: Clear (automated report).

KFCS 220158Z AUTO 32004KT 10SM CLR 19/02 A3002 RMK AO2 SLP133 T01920017 $


Wind From 320°
Speed 04 kn.

 
 
jpsmedia.com for Web Design SOUNDCLOUD worldairports.se 2018   terms of use